sensor_id;sensor_type;location;lat;lon;timestamp;pressure;altitude;pressure_sealevel;temperature;humidity
59367;BME280;45163;47.690;11.770;2022-07-29T00:00:58;93405.38;;;15.92;100.00
59367;BME280;45163;47.690;11.770;2022-07-29T00:03:24;93403.75;;;15.86;100.00
59367;BME280;45163;47.690;11.770;2022-07-29T00:05:50;93405.69;;;15.94;100.00
59367;BME280;45163;47.690;11.770;2022-07-29T00:08:19;93405.06;;;16.00;100.00
59367;BME280;45163;47.690;11.770;2022-07-29T00:10:45;93403.06;;;16.00;100.00
59367;BME280;45163;47.690;11.770;2022-07-29T00:13:11;93395.09;;;16.02;100.00
59367;BME280;45163;47.690;11.770;2022-07-29T00:15:37;93382.22;;;16.08;100.00
59367;BME280;45163;47.690;11.770;2022-07-29T00:18:03;93377.28;;;16.12;100.00
59367;BME280;45163;47.690;11.770;2022-07-29T00:20:32;93375.00;;;16.11;100.00
59367;BME280;45163;47.690;11.770;2022-07-29T00:22:58;93367.69;;;16.08;100.00
59367;BME280;45163;47.690;11.770;2022-07-29T00:25:24;93374.91;;;16.05;100.00
59367;BME280;45163;47.690;11.770;2022-07-29T00:27:50;93369.09;;;16.03;100.00
59367;BME280;45163;47.690;11.770;2022-07-29T00:30:16;93359.25;;;16.11;100.00
59367;BME280;45163;47.690;11.770;2022-07-29T00:32:42;93358.72;;;16.22;100.00
59367;BME280;45163;47.690;11.770;2022-07-29T00:35:09;93359.59;;;16.28;100.00
59367;BME280;45163;47.690;11.770;2022-07-29T00:37:53;93360.34;;;16.29;100.00
59367;BME280;45163;47.690;11.770;2022-07-29T00:40:19;93361.75;;;16.24;100.00
59367;BME280;45163;47.690;11.770;2022-07-29T00:42:48;93353.22;;;16.22;100.00
59367;BME280;45163;47.690;11.770;2022-07-29T00:45:15;93348.31;;;16.26;100.00
59367;BME280;45163;47.690;11.770;2022-07-29T00:47:41;93346.47;;;16.23;100.00
59367;BME280;45163;47.690;11.770;2022-07-29T00:50:09;93351.84;;;16.17;100.00
59367;BME280;45163;47.690;11.770;2022-07-29T00:52:37;93349.41;;;16.19;100.00
59367;BME280;45163;47.690;11.770;2022-07-29T00:55:05;93330.53;;;16.27;100.00
59367;BME280;45163;47.690;11.770;2022-07-29T00:57:32;93324.38;;;16.32;100.00
59367;BME280;45163;47.690;11.770;2022-07-29T00:59:59;93342.00;;;16.26;100.00
59367;BME280;45163;47.690;11.770;2022-07-29T01:02:25;93342.66;;;16.21;100.00
59367;BME280;45163;47.690;11.770;2022-07-29T01:04:51;93345.19;;;16.09;100.00
59367;BME280;45163;47.690;11.770;2022-07-29T01:07:17;93336.81;;;16.04;100.00
59367;BME280;45163;47.690;11.770;2022-07-29T01:09:44;93335.47;;;15.99;100.00
59367;BME280;45163;47.690;11.770;2022-07-29T01:12:14;93329.47;;;16.01;100.00
59367;BME280;45163;47.690;11.770;2022-07-29T01:14:41;93325.78;;;16.04;100.00
59367;BME280;45163;47.690;11.770;2022-07-29T01:17:20;93334.53;;;16.02;100.00
59367;BME280;45163;47.690;11.770;2022-07-29T01:22:29;93337.75;;;16.01;100.00
59367;BME280;45163;47.690;11.770;2022-07-29T01:25:08;93328.28;;;16.02;100.00
59367;BME280;45163;47.690;11.770;2022-07-29T01:27:47;93326.72;;;16.01;100.00
59367;BME280;45163;47.690;11.770;2022-07-29T01:30:17;93331.03;;;16.02;100.00
59367;BME280;45163;47.690;11.770;2022-07-29T01:32:47;93327.97;;;16.00;100.00
59367;BME280;45163;47.690;11.770;2022-07-29T01:35:26;93326.13;;;15.97;100.00
59367;BME280;45163;47.690;11.770;2022-07-29T01:40:45;93327.38;;;15.96;100.00
59367;BME280;45163;47.690;11.770;2022-07-29T01:43:16;93323.38;;;15.97;100.00
59367;BME280;45163;47.690;11.770;2022-07-29T01:46:17;93316.53;;;15.92;100.00
59367;BME280;45163;47.690;11.770;2022-07-29T01:48:47;93312.75;;;15.89;100.00
59367;BME280;45163;47.690;11.770;2022-07-29T01:51:20;93317.06;;;15.81;100.00
59367;BME280;45163;47.690;11.770;2022-07-29T01:56:18;93295.41;;;15.74;100.00
59367;BME280;45163;47.690;11.770;2022-07-29T01:58:47;93300.63;;;15.72;100.00
59367;BME280;45163;47.690;11.770;2022-07-29T02:01:15;93298.81;;;15.69;100.00
59367;BME280;45163;47.690;11.770;2022-07-29T02:03:45;93303.38;;;15.63;100.00
59367;BME280;45163;47.690;11.770;2022-07-29T02:06:12;93311.63;;;15.63;100.00
59367;BME280;45163;47.690;11.770;2022-07-29T02:08:41;93307.53;;;15.58;100.00
59367;BME280;45163;47.690;11.770;2022-07-29T02:11:08;93316.16;;;15.42;100.00
59367;BME280;45163;47.690;11.770;2022-07-29T02:13:35;93313.28;;;15.36;100.00
59367;BME280;45163;47.690;11.770;2022-07-29T02:16:05;93311.19;;;15.31;100.00
59367;BME280;45163;47.690;11.770;2022-07-29T02:18:33;93312.09;;;15.28;100.00
59367;BME280;45163;47.690;11.770;2022-07-29T02:21:02;93311.94;;;15.32;100.00
59367;BME280;45163;47.690;11.770;2022-07-29T02:23:30;93314.69;;;15.32;100.00
59367;BME280;45163;47.690;11.770;2022-07-29T02:25:59;93308.72;;;15.33;100.00
59367;BME280;45163;47.690;11.770;2022-07-29T02:28:27;93300.94;;;15.32;100.00
59367;BME280;45163;47.690;11.770;2022-07-29T02:30:59;93294.69;;;15.31;100.00
59367;BME280;45163;47.690;11.770;2022-07-29T02:33:27;93290.09;;;15.28;100.00
59367;BME280;45163;47.690;11.770;2022-07-29T02:35:56;93291.63;;;15.29;100.00
59367;BME280;45163;47.690;11.770;2022-07-29T02:38:25;93298.53;;;15.25;100.00
59367;BME280;45163;47.690;11.770;2022-07-29T02:41:30;93292.59;;;15.17;100.00
59367;BME280;45163;47.690;11.770;2022-07-29T02:44:06;93293.97;;;15.12;100.00
59367;BME280;45163;47.690;11.770;2022-07-29T02:46:36;93288.31;;;15.16;100.00
59367;BME280;45163;47.690;11.770;2022-07-29T02:49:41;93282.66;;;15.19;100.00
59367;BME280;45163;47.690;11.770;2022-07-29T02:57:19;93276.72;;;15.12;100.00
59367;BME280;45163;47.690;11.770;2022-07-29T02:59:48;93292.19;;;15.09;100.00
59367;BME280;45163;47.690;11.770;2022-07-29T03:02:16;93285.28;;;15.05;100.00
59367;BME280;45163;47.690;11.770;2022-07-29T03:04:43;93284.88;;;14.97;100.00
59367;BME280;45163;47.690;11.770;2022-07-29T03:07:13;93284.56;;;14.95;100.00
59367;BME280;45163;47.690;11.770;2022-07-29T03:09:41;93287.47;;;14.91;100.00
59367;BME280;45163;47.690;11.770;2022-07-29T03:12:08;93288.44;;;14.88;100.00
59367;BME280;45163;47.690;11.770;2022-07-29T03:14:35;93288.13;;;14.86;100.00
59367;BME280;45163;47.690;11.770;2022-07-29T03:17:02;93280.78;;;14.83;100.00
59367;BME280;45163;47.690;11.770;2022-07-29T03:19:29;93286.59;;;14.85;100.00
59367;BME280;45163;47.690;11.770;2022-07-29T03:21:56;93283.84;;;14.85;100.00
59367;BME280;45163;47.690;11.770;2022-07-29T03:24:27;93282.94;;;14.88;100.00
59367;BME280;45163;47.690;11.770;2022-07-29T03:26:54;93282.94;;;14.88;100.00
59367;BME280;45163;47.690;11.770;2022-07-29T03:29:20;93282.47;;;14.90;100.00
59367;BME280;45163;47.690;11.770;2022-07-29T03:31:46;93283.22;;;14.90;100.00
59367;BME280;45163;47.690;11.770;2022-07-29T03:34:12;93284.91;;;14.88;100.00
59367;BME280;45163;47.690;11.770;2022-07-29T03:36:38;93283.22;;;14.90;100.00
59367;BME280;45163;47.690;11.770;2022-07-29T03:39:05;93288.84;;;14.96;100.00
59367;BME280;45163;47.690;11.770;2022-07-29T03:41:31;93283.78;;;15.04;100.00
59367;BME280;45163;47.690;11.770;2022-07-29T03:43:58;93281.63;;;15.08;100.00
59367;BME280;45163;47.690;11.770;2022-07-29T03:46:26;93282.41;;;14.99;100.00
59367;BME280;45163;47.690;11.770;2022-07-29T03:48:58;93279.06;;;14.95;100.00
59367;BME280;45163;47.690;11.770;2022-07-29T03:51:25;93284.59;;;14.86;100.00
59367;BME280;45163;47.690;11.770;2022-07-29T03:53:52;93283.25;;;14.81;100.00
59367;BME280;45163;47.690;11.770;2022-07-29T03:56:21;93285.88;;;14.76;100.00
59367;BME280;45163;47.690;11.770;2022-07-29T03:58:50;93290.44;;;14.69;100.00
59367;BME280;45163;47.690;11.770;2022-07-29T04:01:17;93286.34;;;14.65;100.00
59367;BME280;45163;47.690;11.770;2022-07-29T04:03:44;93286.34;;;14.65;100.00
59367;BME280;45163;47.690;11.770;2022-07-29T04:06:13;93282.06;;;14.64;100.00
59367;BME280;45163;47.690;11.770;2022-07-29T04:08:40;93279.91;;;14.59;100.00
59367;BME280;45163;47.690;11.770;2022-07-29T04:11:06;93282.38;;;14.57;100.00
59367;BME280;45163;47.690;11.770;2022-07-29T04:13:32;93283.63;;;14.56;100.00
59367;BME280;45163;47.690;11.770;2022-07-29T04:15:58;93294.59;;;14.56;100.00
59367;BME280;45163;47.690;11.770;2022-07-29T04:18:25;93280.88;;;14.56;100.00
59367;BME280;45163;47.690;11.770;2022-07-29T04:20:51;93281.72;;;14.71;100.00
59367;BME280;45163;47.690;11.770;2022-07-29T04:23:17;93277.91;;;14.78;100.00
59367;BME280;45163;47.690;11.770;2022-07-29T04:25:43;93283.84;;;14.85;100.00
59367;BME280;45163;47.690;11.770;2022-07-29T04:28:09;93284.13;;;14.87;100.00
59367;BME280;45163;47.690;11.770;2022-07-29T04:30:36;93284.13;;;14.87;100.00
59367;BME280;45163;47.690;11.770;2022-07-29T04:33:05;93285.22;;;14.90;100.00
59367;BME280;45163;47.690;11.770;2022-07-29T04:35:35;93295.13;;;14.97;100.00
59367;BME280;45163;47.690;11.770;2022-07-29T04:38:01;93292.66;;;14.99;100.00
59367;BME280;45163;47.690;11.770;2022-07-29T04:40:28;93298.13;;;15.08;100.00
59367;BME280;45163;47.690;11.770;2022-07-29T04:42:54;93286.00;;;15.24;100.00
59367;BME280;45163;47.690;11.770;2022-07-29T04:45:21;93284.44;;;15.32;100.00
59367;BME280;45163;47.690;11.770;2022-07-29T04:47:46;93289.59;;;15.39;100.00
59367;BME280;45163;47.690;11.770;2022-07-29T04:50:12;93297.06;;;15.48;100.00
59367;BME280;45163;47.690;11.770;2022-07-29T04:52:38;93284.81;;;15.49;100.00
59367;BME280;45163;47.690;11.770;2022-07-29T04:55:05;93295.81;;;15.49;100.00
59367;BME280;45163;47.690;11.770;2022-07-29T04:57:31;93290.47;;;15.45;100.00
59367;BME280;45163;47.690;11.770;2022-07-29T04:59:57;93299.81;;;15.48;100.00
59367;BME280;45163;47.690;11.770;2022-07-29T05:02:23;93295.94;;;15.54;100.00
59367;BME280;45163;47.690;11.770;2022-07-29T05:04:49;93293.16;;;15.63;100.00
59367;BME280;45163;47.690;11.770;2022-07-29T05:07:15;93295.22;;;15.78;100.00
59367;BME280;45163;47.690;11.770;2022-07-29T05:09:41;93292.81;;;15.94;100.00
59367;BME280;45163;47.690;11.770;2022-07-29T05:12:07;93301.25;;;16.15;100.00
59367;BME280;45163;47.690;11.770;2022-07-29T05:14:33;93291.91;;;16.36;100.00
59367;BME280;45163;47.690;11.770;2022-07-29T05:16:59;93290.03;;;16.57;100.00
59367;BME280;45163;47.690;11.770;2022-07-29T05:19:25;93288.16;;;16.78;100.00
59367;BME280;45163;47.690;11.770;2022-07-29T05:21:51;93286.34;;;17.05;100.00
59367;BME280;45163;47.690;11.770;2022-07-29T05:24:17;93281.66;;;17.26;100.00
59367;BME280;45163;47.690;11.770;2022-07-29T05:26:43;93289.63;;;17.38;100.00
59367;BME280;45163;47.690;11.770;2022-07-29T05:29:09;93272.88;;;17.42;100.00
59367;BME280;45163;47.690;11.770;2022-07-29T05:31:36;93281.59;;;17.55;100.00
59367;BME280;45163;47.690;11.770;2022-07-29T05:34:02;93271.47;;;17.67;100.00
59367;BME280;45163;47.690;11.770;2022-07-29T05:36:28;93274.13;;;17.76;100.00
59367;BME280;45163;47.690;11.770;2022-07-29T05:38:54;93264.09;;;17.58;100.00
59367;BME280;45163;47.690;11.770;2022-07-29T05:41:20;93281.22;;;17.62;100.00
59367;BME280;45163;47.690;11.770;2022-07-29T05:43:46;93279.63;;;17.56;100.00
59367;BME280;45163;47.690;11.770;2022-07-29T05:46:12;93280.78;;;17.49;100.00
59367;BME280;45163;47.690;11.770;2022-07-29T05:48:39;93281.09;;;17.36;100.00
59367;BME280;45163;47.690;11.770;2022-07-29T05:51:05;93293.47;;;17.26;100.00
59367;BME280;45163;47.690;11.770;2022-07-29T05:53:31;93298.69;;;17.24;100.00
59367;BME280;45163;47.690;11.770;2022-07-29T05:55:58;93291.63;;;17.38;100.00
59367;BME280;45163;47.690;11.770;2022-07-29T05:58:24;93287.03;;;17.64;100.00
59367;BME280;45163;47.690;11.770;2022-07-29T06:00:50;93285.75;;;17.80;100.00
59367;BME280;45163;47.690;11.770;2022-07-29T06:03:16;93278.16;;;18.16;100.00
59367;BME280;45163;47.690;11.770;2022-07-29T06:05:42;93282.13;;;18.56;100.00
59367;BME280;45163;47.690;11.770;2022-07-29T06:08:08;93286.66;;;18.79;100.00
59367;BME280;45163;47.690;11.770;2022-07-29T06:10:37;93290.09;;;19.26;100.00
59367;BME280;45163;47.690;11.770;2022-07-29T06:13:03;93289.81;;;19.56;100.00
59367;BME280;45163;47.690;11.770;2022-07-29T06:15:29;93292.19;;;19.69;100.00
59367;BME280;45163;47.690;11.770;2022-07-29T06:17:55;93290.34;;;19.60;100.00
59367;BME280;45163;47.690;11.770;2022-07-29T06:20:21;93292.00;;;19.46;100.00
59367;BME280;45163;47.690;11.770;2022-07-29T06:22:47;93297.31;;;19.18;100.00
59367;BME280;45163;47.690;11.770;2022-07-29T06:25:13;93292.69;;;19.04;100.00
59367;BME280;45163;47.690;11.770;2022-07-29T06:27:39;93293.78;;;19.17;100.00
59367;BME280;45163;47.690;11.770;2022-07-29T06:30:06;93304.81;;;19.75;100.00
59367;BME280;45163;47.690;11.770;2022-07-29T06:32:35;93293.06;;;20.40;100.00
59367;BME280;45163;47.690;11.770;2022-07-29T06:35:01;93298.78;;;20.91;100.00
59367;BME280;45163;47.690;11.770;2022-07-29T06:37:27;93292.25;;;21.61;100.00
59367;BME280;45163;47.690;11.770;2022-07-29T06:39:53;93294.47;;;22.02;100.00
59367;BME280;45163;47.690;11.770;2022-07-29T06:42:43;93294.66;;;22.37;100.00
59367;BME280;45163;47.690;11.770;2022-07-29T06:45:10;93286.50;;;23.03;92.68
59367;BME280;45163;47.690;11.770;2022-07-29T06:47:37;93279.91;;;23.72;88.63
59367;BME280;45163;47.690;11.770;2022-07-29T06:50:04;93281.63;;;24.05;90.11
59367;BME280;45163;47.690;11.770;2022-07-29T06:52:30;93284.78;;;24.15;90.30
59367;BME280;45163;47.690;11.770;2022-07-29T06:54:56;93276.78;;;24.06;89.33
59367;BME280;45163;47.690;11.770;2022-07-29T06:57:22;93281.31;;;24.09;84.54
59367;BME280;45163;47.690;11.770;2022-07-29T06:59:48;93280.22;;;24.42;81.85
59367;BME280;45163;47.690;11.770;2022-07-29T07:02:14;93282.06;;;24.58;78.76
59367;BME280;45163;47.690;11.770;2022-07-29T07:04:40;93274.00;;;24.30;81.75
59367;BME280;45163;47.690;11.770;2022-07-29T07:07:12;93266.53;;;24.63;79.53
59367;BME280;45163;47.690;11.770;2022-07-29T07:09:41;93270.28;;;24.84;81.93
59367;BME280;45163;47.690;11.770;2022-07-29T07:12:07;93274.72;;;25.31;76.96
59367;BME280;45163;47.690;11.770;2022-07-29T07:14:33;93273.13;;;26.13;74.59
59367;BME280;45163;47.690;11.770;2022-07-29T07:16:59;93274.97;;;26.50;69.74
59367;BME280;45163;47.690;11.770;2022-07-29T07:19:26;93270.63;;;26.49;67.50
59367;BME280;45163;47.690;11.770;2022-07-29T07:21:53;93275.63;;;27.17;67.95
59367;BME280;45163;47.690;11.770;2022-07-29T07:24:19;93280.66;;;27.19;63.49
59367;BME280;45163;47.690;11.770;2022-07-29T07:26:45;93281.50;;;26.66;61.36
59367;BME280;45163;47.690;11.770;2022-07-29T07:29:11;93272.44;;;27.21;61.62
59367;BME280;45163;47.690;11.770;2022-07-29T07:31:37;93271.13;;;27.98;59.44
59367;BME280;45163;47.690;11.770;2022-07-29T07:34:03;93279.13;;;28.72;59.18
59367;BME280;45163;47.690;11.770;2022-07-29T07:36:29;93276.03;;;28.34;56.47
59367;BME280;45163;47.690;11.770;2022-07-29T07:38:55;93276.81;;;28.05;54.93
59367;BME280;45163;47.690;11.770;2022-07-29T07:41:22;93276.66;;;28.11;58.21
59367;BME280;45163;47.690;11.770;2022-07-29T07:43:48;93264.53;;;28.16;53.63
59367;BME280;45163;47.690;11.770;2022-07-29T07:46:14;93275.72;;;29.02;55.04
59367;BME280;45163;47.690;11.770;2022-07-29T07:48:40;93269.88;;;29.67;54.76
59367;BME280;45163;47.690;11.770;2022-07-29T07:51:06;93268.03;;;30.00;49.41
59367;BME280;45163;47.690;11.770;2022-07-29T07:53:33;93260.47;;;30.56;47.23
59367;BME280;45163;47.690;11.770;2022-07-29T07:55:59;93262.09;;;30.82;49.79
59367;BME280;45163;47.690;11.770;2022-07-29T07:58:26;93258.06;;;31.08;48.02
59367;BME280;45163;47.690;11.770;2022-07-29T08:00:52;93262.63;;;30.88;46.51
59367;BME280;45163;47.690;11.770;2022-07-29T08:03:18;93257.84;;;30.43;47.50
59367;BME280;45163;47.690;11.770;2022-07-29T08:05:44;93258.09;;;30.93;45.75
59367;BME280;45163;47.690;11.770;2022-07-29T08:08:10;93256.69;;;30.69;43.45
59367;BME280;45163;47.690;11.770;2022-07-29T08:10:36;93255.81;;;31.07;43.02
59367;BME280;45163;47.690;11.770;2022-07-29T08:13:21;93257.56;;;30.94;43.46
59367;BME280;45163;47.690;11.770;2022-07-29T08:15:49;93262.19;;;31.47;42.87
59367;BME280;45163;47.690;11.770;2022-07-29T08:18:29;93258.78;;;31.16;42.47
59367;BME280;45163;47.690;11.770;2022-07-29T08:20:56;93266.28;;;31.14;41.14
59367;BME280;45163;47.690;11.770;2022-07-29T08:23:23;93265.53;;;31.13;39.58
59367;BME280;45163;47.690;11.770;2022-07-29T08:25:49;93270.00;;;31.32;42.12
59367;BME280;45163;47.690;11.770;2022-07-29T08:28:16;93275.06;;;31.66;42.07
59367;BME280;45163;47.690;11.770;2022-07-29T08:30:43;93282.97;;;31.27;38.79
59367;BME280;45163;47.690;11.770;2022-07-29T08:33:09;93284.09;;;31.64;34.19
59367;BME280;45163;47.690;11.770;2022-07-29T08:35:35;93273.72;;;31.99;36.21
59367;BME280;45163;47.690;11.770;2022-07-29T08:38:01;93282.25;;;31.59;34.20
59367;BME280;45163;47.690;11.770;2022-07-29T08:40:29;93277.91;;;31.25;35.07
59367;BME280;45163;47.690;11.770;2022-07-29T08:42:55;93284.97;;;31.74;35.78
59367;BME280;45163;47.690;11.770;2022-07-29T08:45:22;93286.13;;;31.71;35.75
59367;BME280;45163;47.690;11.770;2022-07-29T08:47:49;93274.91;;;32.39;33.38
59367;BME280;45163;47.690;11.770;2022-07-29T08:50:15;93278.34;;;32.72;32.94
59367;BME280;45163;47.690;11.770;2022-07-29T08:52:41;93265.13;;;33.09;34.61
59367;BME280;45163;47.690;11.770;2022-07-29T08:55:09;93271.28;;;33.60;31.92
59367;BME280;45163;47.690;11.770;2022-07-29T08:57:35;93272.03;;;33.16;32.43
59367;BME280;45163;47.690;11.770;2022-07-29T09:00:04;93280.53;;;33.43;33.51
59367;BME280;45163;47.690;11.770;2022-07-29T09:02:35;93282.88;;;33.54;32.75
59367;BME280;45163;47.690;11.770;2022-07-29T09:05:05;93277.84;;;32.83;32.10
59367;BME280;45163;47.690;11.770;2022-07-29T09:07:31;93274.31;;;33.27;31.73
59367;BME280;45163;47.690;11.770;2022-07-29T09:09:59;93283.38;;;33.43;33.43
59367;BME280;45163;47.690;11.770;2022-07-29T09:12:25;93280.53;;;33.43;31.81
59367;BME280;45163;47.690;11.770;2022-07-29T09:14:51;93282.91;;;33.37;32.49
59367;BME280;45163;47.690;11.770;2022-07-29T09:17:17;93286.50;;;32.68;32.85
59367;BME280;45163;47.690;11.770;2022-07-29T09:19:45;93282.75;;;33.17;31.97
59367;BME280;45163;47.690;11.770;2022-07-29T09:22:11;93282.50;;;33.06;32.11
59367;BME280;45163;47.690;11.770;2022-07-29T09:27:10;93275.72;;;33.36;32.09
59367;BME280;45163;47.690;11.770;2022-07-29T09:29:36;93285.72;;;32.50;31.90
59367;BME280;45163;47.690;11.770;2022-07-29T09:32:08;93286.34;;;32.66;31.84
59367;BME280;45163;47.690;11.770;2022-07-29T09:34:35;93282.97;;;33.46;30.81
59367;BME280;45163;47.690;11.770;2022-07-29T09:37:02;93275.09;;;34.55;27.87
59367;BME280;45163;47.690;11.770;2022-07-29T09:39:30;93283.66;;;35.23;28.14
59367;BME280;45163;47.690;11.770;2022-07-29T09:41:58;93274.53;;;34.76;28.30
59367;BME280;45163;47.690;11.770;2022-07-29T09:44:25;93264.47;;;34.36;29.47
59367;BME280;45163;47.690;11.770;2022-07-29T09:47:02;93268.72;;;34.18;28.99
59367;BME280;45163;47.690;11.770;2022-07-29T09:49:32;93259.75;;;34.68;29.08
59367;BME280;45163;47.690;11.770;2022-07-29T09:52:02;93254.25;;;35.18;28.34
59367;BME280;45163;47.690;11.770;2022-07-29T09:54:29;93257.88;;;35.79;25.66
59367;BME280;45163;47.690;11.770;2022-07-29T09:57:00;93257.53;;;34.66;27.71
59367;BME280;45163;47.690;11.770;2022-07-29T09:59:26;93257.16;;;33.97;28.85
59367;BME280;45163;47.690;11.770;2022-07-29T10:01:52;93255.34;;;34.38;28.66
59367;BME280;45163;47.690;11.770;2022-07-29T10:04:19;93255.59;;;34.79;26.40
59367;BME280;45163;47.690;11.770;2022-07-29T10:06:58;93260.63;;;32.89;31.04
59367;BME280;45163;47.690;11.770;2022-07-29T10:09:25;93257.50;;;33.46;30.37
59367;BME280;45163;47.690;11.770;2022-07-29T10:12:12;93256.75;;;33.46;32.21
59367;BME280;45163;47.690;11.770;2022-07-29T10:14:42;93266.38;;;32.64;32.67
59367;BME280;45163;47.690;11.770;2022-07-29T10:17:09;93262.66;;;31.36;34.64
59367;BME280;45163;47.690;11.770;2022-07-29T10:19:37;93276.13;;;31.78;34.99
59367;BME280;45163;47.690;11.770;2022-07-29T10:22:07;93276.66;;;31.52;35.52
59367;BME280;45163;47.690;11.770;2022-07-29T10:24:34;93272.94;;;30.93;35.50
59367;BME280;45163;47.690;11.770;2022-07-29T10:27:02;93267.25;;;30.45;36.64
59367;BME280;45163;47.690;11.770;2022-07-29T10:29:29;93258.66;;;29.90;36.92
59367;BME280;45163;47.690;11.770;2022-07-29T10:43:14;93256.56;;;29.00;40.09
59367;BME280;45163;47.690;11.770;2022-07-29T10:45:42;93259.50;;;29.46;40.65
59367;BME280;45163;47.690;11.770;2022-07-29T10:48:08;93256.16;;;29.56;39.79
59367;BME280;45163;47.690;11.770;2022-07-29T10:50:57;93251.81;;;30.62;37.75
59367;BME280;45163;47.690;11.770;2022-07-29T10:53:25;93256.25;;;32.61;34.74
59367;BME280;45163;47.690;11.770;2022-07-29T10:56:27;93250.66;;;32.53;31.39
59367;BME280;45163;47.690;11.770;2022-07-29T11:01:46;93250.63;;;33.67;30.79
59367;BME280;45163;47.690;11.770;2022-07-29T11:04:12;93256.22;;;34.21;29.49
59367;BME280;45163;47.690;11.770;2022-07-29T11:07:15;93254.25;;;34.24;29.24
59367;BME280;45163;47.690;11.770;2022-07-29T11:09:41;93254.72;;;35.05;28.68
59367;BME280;45163;47.690;11.770;2022-07-29T11:15:05;93248.25;;;34.10;29.68
59367;BME280;45163;47.690;11.770;2022-07-29T11:20:42;93246.75;;;35.42;28.25
59367;BME280;45163;47.690;11.770;2022-07-29T11:23:27;93245.25;;;36.02;27.70
59367;BME280;45163;47.690;11.770;2022-07-29T11:28:42;93253.44;;;35.66;29.22
59367;BME280;45163;47.690;11.770;2022-07-29T11:31:16;93244.88;;;35.76;28.92
59367;BME280;45163;47.690;11.770;2022-07-29T11:33:42;93244.84;;;34.58;28.24
59367;BME280;45163;47.690;11.770;2022-07-29T11:36:12;93246.78;;;34.18;30.40
59367;BME280;45163;47.690;11.770;2022-07-29T11:38:39;93239.91;;;34.68;28.04
59367;BME280;45163;47.690;11.770;2022-07-29T11:43:56;93228.72;;;35.18;26.74
59367;BME280;45163;47.690;11.770;2022-07-29T11:46:46;93234.78;;;35.95;26.47
59367;BME280;45163;47.690;11.770;2022-07-29T11:49:22;93235.56;;;35.15;27.78
59367;BME280;45163;47.690;11.770;2022-07-29T11:51:56;93237.63;;;35.44;27.73
59367;BME280;45163;47.690;11.770;2022-07-29T11:54:31;93225.41;;;35.22;27.42
59367;BME280;45163;47.690;11.770;2022-07-29T11:56:58;93216.97;;;35.63;26.75
59367;BME280;45163;47.690;11.770;2022-07-29T11:59:25;93212.94;;;36.59;26.40
59367;BME280;45163;47.690;11.770;2022-07-29T12:01:57;93213.56;;;36.27;25.75
59367;BME280;45163;47.690;11.770;2022-07-29T12:04:23;93206.28;;;36.88;25.97
59367;BME280;45163;47.690;11.770;2022-07-29T12:06:53;93203.50;;;36.78;25.86
59367;BME280;45163;47.690;11.770;2022-07-29T12:09:21;93198.56;;;36.79;25.26
59367;BME280;45163;47.690;11.770;2022-07-29T12:11:47;93202.97;;;36.70;24.85
59367;BME280;45163;47.690;11.770;2022-07-29T12:14:31;93206.41;;;36.26;26.24
59367;BME280;45163;47.690;11.770;2022-07-29T12:16:58;93199.84;;;36.87;25.85
59367;BME280;45163;47.690;11.770;2022-07-29T12:19:26;93197.50;;;37.17;25.25
59367;BME280;45163;47.690;11.770;2022-07-29T12:21:53;93187.88;;;36.68;25.27
59367;BME280;45163;47.690;11.770;2022-07-29T12:24:20;93197.22;;;36.58;25.92
59367;BME280;45163;47.690;11.770;2022-07-29T12:26:58;93195.75;;;35.95;26.13
59367;BME280;45163;47.690;11.770;2022-07-29T12:29:25;93194.94;;;35.23;27.19
59367;BME280;45163;47.690;11.770;2022-07-29T12:31:53;93193.34;;;35.10;27.89
59367;BME280;45163;47.690;11.770;2022-07-29T12:34:22;93188.47;;;35.51;27.15
59367;BME280;45163;47.690;11.770;2022-07-29T12:36:49;93182.88;;;34.74;28.07
59367;BME280;45163;47.690;11.770;2022-07-29T12:39:16;93184.84;;;34.71;29.11
59367;BME280;45163;47.690;11.770;2022-07-29T12:41:43;93179.09;;;34.03;29.11
59367;BME280;45163;47.690;11.770;2022-07-29T12:44:10;93183.97;;;32.85;30.72
59367;BME280;45163;47.690;11.770;2022-07-29T12:46:36;93182.13;;;32.10;32.34
59367;BME280;45163;47.690;11.770;2022-07-29T12:49:03;93185.75;;;31.86;32.59
59367;BME280;45163;47.690;11.770;2022-07-29T12:51:47;93184.25;;;33.24;29.94
59367;BME280;45163;47.690;11.770;2022-07-29T12:54:15;93182.28;;;34.65;28.64
59367;BME280;45163;47.690;11.770;2022-07-29T12:56:43;93181.13;;;36.51;26.35
59367;BME280;45163;47.690;11.770;2022-07-29T12:59:15;93185.69;;;36.35;25.85
59367;BME280;45163;47.690;11.770;2022-07-29T13:01:42;93192.19;;;33.62;29.65
59367;BME280;45163;47.690;11.770;2022-07-29T13:04:07;93185.56;;;32.43;31.36
59367;BME280;45163;47.690;11.770;2022-07-29T13:06:57;93193.13;;;31.56;32.21
59367;BME280;45163;47.690;11.770;2022-07-29T13:09:23;93191.81;;;30.84;33.83
59367;BME280;45163;47.690;11.770;2022-07-29T13:11:50;93196.13;;;30.30;36.74
59367;BME280;45163;47.690;11.770;2022-07-29T13:17:07;93195.41;;;28.78;39.88
59367;BME280;45163;47.690;11.770;2022-07-29T13:22:08;93199.94;;;28.81;42.06
59367;BME280;45163;47.690;11.770;2022-07-29T13:24:51;93194.44;;;28.60;41.60
59367;BME280;45163;47.690;11.770;2022-07-29T13:27:19;93199.50;;;29.28;40.84
59367;BME280;45163;47.690;11.770;2022-07-29T13:29:45;93189.59;;;29.35;39.84
59367;BME280;45163;47.690;11.770;2022-07-29T13:32:12;93191.84;;;29.75;40.25
59367;BME280;45163;47.690;11.770;2022-07-29T13:34:39;93195.41;;;30.06;39.58
59367;BME280;45163;47.690;11.770;2022-07-29T13:37:06;93204.97;;;31.22;37.67
59367;BME280;45163;47.690;11.770;2022-07-29T13:39:32;93191.56;;;31.88;36.34